Grangerland, Texas
Current Conditions -  °F | °C
As of 5:53 PM on Saturday 22 Nov 2014 (Local Time) from KCXO Reporting Station
Light Rain Light Rain  
Wind Chill: 65°   Ceiling: 700
Heat Index: 65°   Visibility: 8mi
Dew Point: 64°   Wind: 8mph
Humidity: 97%   Direction: 120°ESE
Pressure: 29.83"   Gusts: NA
Location:  30.2363°N, 95.376°W
Report Text: KCXO 222353Z 12007KT 8SM -RA BKN007 BKN055 OVC110 18/18 A2983 RMK AO2 LTG DSNT NW SLP099 P0002 60005 T01830178 10194 20183 56020
Loading
Personal Weather Stations






























Interactive Weather Map New forecast layout! Learn more

10-Day Weather Forecast

Advertisements
Track Severe Weather on mobile